sensor_id;sensor_type;location;lat;lon;timestamp;P1;durP1;ratioP1;P2;durP2;ratioP2
44169;SDS011;29836;52.286;9.576;2023-08-01T00:00:02;3.03;;;2.10;;
44169;SDS011;29836;52.286;9.576;2023-08-01T00:02:30;2.88;;;1.95;;
44169;SDS011;29836;52.286;9.576;2023-08-01T00:04:56;2.90;;;2.00;;
44169;SDS011;29836;52.286;9.576;2023-08-01T00:07:22;3.20;;;2.05;;
44169;SDS011;29836;52.286;9.576;2023-08-01T00:09:47;4.90;;;2.08;;
44169;SDS011;29836;52.286;9.576;2023-08-01T00:12:13;2.53;;;1.95;;
44169;SDS011;29836;52.286;9.576;2023-08-01T00:14:39;3.28;;;1.90;;
44169;SDS011;29836;52.286;9.576;2023-08-01T00:17:05;3.13;;;2.00;;
44169;SDS011;29836;52.286;9.576;2023-08-01T00:19:31;3.70;;;2.28;;
44169;SDS011;29836;52.286;9.576;2023-08-01T00:21:56;3.47;;;2.38;;
44169;SDS011;29836;52.286;9.576;2023-08-01T00:24:22;3.88;;;1.98;;
44169;SDS011;29836;52.286;9.576;2023-08-01T00:26:47;3.83;;;2.35;;
44169;SDS011;29836;52.286;9.576;2023-08-01T00:29:13;5.60;;;2.30;;
44169;SDS011;29836;52.286;9.576;2023-08-01T00:31:38;3.45;;;2.03;;
44169;SDS011;29836;52.286;9.576;2023-08-01T00:34:04;2.80;;;2.03;;
44169;SDS011;29836;52.286;9.576;2023-08-01T00:36:29;9.02;;;2.13;;
44169;SDS011;29836;52.286;9.576;2023-08-01T00:38:55;4.15;;;2.50;;
44169;SDS011;29836;52.286;9.576;2023-08-01T00:41:20;6.03;;;2.75;;
44169;SDS011;29836;52.286;9.576;2023-08-01T00:43:46;7.68;;;2.72;;
44169;SDS011;29836;52.286;9.576;2023-08-01T00:46:11;10.70;;;2.95;;
44169;SDS011;29836;52.286;9.576;2023-08-01T00:48:37;10.18;;;3.08;;
44169;SDS011;29836;52.286;9.576;2023-08-01T00:51:04;5.55;;;2.80;;
44169;SDS011;29836;52.286;9.576;2023-08-01T00:53:31;7.82;;;2.90;;
44169;SDS011;29836;52.286;9.576;2023-08-01T00:55:57;5.03;;;2.97;;
44169;SDS011;29836;52.286;9.576;2023-08-01T00:58:23;4.47;;;2.72;;
44169;SDS011;29836;52.286;9.576;2023-08-01T01:00:49;4.47;;;2.72;;
44169;SDS011;29836;52.286;9.576;2023-08-01T01:03:15;4.30;;;2.28;;
44169;SDS011;29836;52.286;9.576;2023-08-01T01:05:56;4.65;;;2.22;;
44169;SDS011;29836;52.286;9.576;2023-08-01T01:08:29;6.25;;;2.63;;
44169;SDS011;29836;52.286;9.576;2023-08-01T01:10:54;4.22;;;2.17;;
44169;SDS011;29836;52.286;9.576;2023-08-01T01:13:20;2.80;;;1.88;;
44169;SDS011;29836;52.286;9.576;2023-08-01T01:15:45;6.18;;;1.95;;
44169;SDS011;29836;52.286;9.576;2023-08-01T01:18:12;3.22;;;1.83;;
44169;SDS011;29836;52.286;9.576;2023-08-01T01:20:37;3.25;;;1.92;;
44169;SDS011;29836;52.286;9.576;2023-08-01T01:23:04;2.67;;;1.80;;
44169;SDS011;29836;52.286;9.576;2023-08-01T01:25:31;2.38;;;1.63;;
44169;SDS011;29836;52.286;9.576;2023-08-01T01:27:58;2.42;;;1.35;;
44169;SDS011;29836;52.286;9.576;2023-08-01T01:30:26;3.70;;;1.48;;
44169;SDS011;29836;52.286;9.576;2023-08-01T01:32:53;2.72;;;1.63;;
44169;SDS011;29836;52.286;9.576;2023-08-01T01:35:19;2.15;;;1.50;;
44169;SDS011;29836;52.286;9.576;2023-08-01T01:37:44;3.97;;;1.65;;
44169;SDS011;29836;52.286;9.576;2023-08-01T01:40:10;5.18;;;1.50;;
44169;SDS011;29836;52.286;9.576;2023-08-01T01:42:36;2.78;;;1.40;;
44169;SDS011;29836;52.286;9.576;2023-08-01T01:45:02;3.70;;;1.40;;
44169;SDS011;29836;52.286;9.576;2023-08-01T01:47:27;2.17;;;1.30;;
44169;SDS011;29836;52.286;9.576;2023-08-01T01:49:53;3.15;;;1.20;;
44169;SDS011;29836;52.286;9.576;2023-08-01T01:52:18;2.65;;;1.40;;
44169;SDS011;29836;52.286;9.576;2023-08-01T01:54:44;3.30;;;1.52;;
44169;SDS011;29836;52.286;9.576;2023-08-01T01:57:09;2.20;;;1.23;;
44169;SDS011;29836;52.286;9.576;2023-08-01T01:59:35;1.30;;;0.98;;
44169;SDS011;29836;52.286;9.576;2023-08-01T02:02:01;2.38;;;1.27;;
44169;SDS011;29836;52.286;9.576;2023-08-01T02:04:28;2.35;;;1.20;;
44169;SDS011;29836;52.286;9.576;2023-08-01T02:06:54;1.80;;;1.10;;
44169;SDS011;29836;52.286;9.576;2023-08-01T02:09:20;2.05;;;1.20;;
44169;SDS011;29836;52.286;9.576;2023-08-01T02:11:45;2.38;;;1.20;;
44169;SDS011;29836;52.286;9.576;2023-08-01T02:14:11;3.47;;;1.00;;
44169;SDS011;29836;52.286;9.576;2023-08-01T02:16:36;2.10;;;1.10;;
44169;SDS011;29836;52.286;9.576;2023-08-01T02:19:02;2.03;;;1.20;;
44169;SDS011;29836;52.286;9.576;2023-08-01T02:21:28;1.65;;;1.10;;
44169;SDS011;29836;52.286;9.576;2023-08-01T02:23:53;1.80;;;1.10;;
44169;SDS011;29836;52.286;9.576;2023-08-01T02:26:19;1.25;;;0.80;;
44169;SDS011;29836;52.286;9.576;2023-08-01T02:28:46;1.77;;;1.00;;
44169;SDS011;29836;52.286;9.576;2023-08-01T02:31:11;1.95;;;1.00;;
44169;SDS011;29836;52.286;9.576;2023-08-01T02:33:37;2.83;;;1.00;;
44169;SDS011;29836;52.286;9.576;2023-08-01T02:36:02;1.25;;;0.80;;
44169;SDS011;29836;52.286;9.576;2023-08-01T02:38:28;2.60;;;1.02;;
44169;SDS011;29836;52.286;9.576;2023-08-01T02:40:54;1.85;;;0.98;;
44169;SDS011;29836;52.286;9.576;2023-08-01T02:43:19;2.92;;;1.23;;
44169;SDS011;29836;52.286;9.576;2023-08-01T02:45:45;2.42;;;0.95;;
44169;SDS011;29836;52.286;9.576;2023-08-01T02:48:10;2.85;;;1.15;;
44169;SDS011;29836;52.286;9.576;2023-08-01T02:50:36;1.85;;;1.00;;
44169;SDS011;29836;52.286;9.576;2023-08-01T02:53:01;5.80;;;1.25;;
44169;SDS011;29836;52.286;9.576;2023-08-01T02:55:27;1.20;;;0.90;;
44169;SDS011;29836;52.286;9.576;2023-08-01T02:57:53;3.63;;;1.10;;
44169;SDS011;29836;52.286;9.576;2023-08-01T03:00:18;1.40;;;0.90;;
44169;SDS011;29836;52.286;9.576;2023-08-01T03:02:44;2.75;;;0.90;;
44169;SDS011;29836;52.286;9.576;2023-08-01T03:05:09;1.30;;;0.70;;
44169;SDS011;29836;52.286;9.576;2023-08-01T03:07:35;2.65;;;1.10;;
44169;SDS011;29836;52.286;9.576;2023-08-01T03:10:01;2.35;;;1.08;;
44169;SDS011;29836;52.286;9.576;2023-08-01T03:12:27;1.10;;;0.90;;
44169;SDS011;29836;52.286;9.576;2023-08-01T03:14:53;1.23;;;0.82;;
44169;SDS011;29836;52.286;9.576;2023-08-01T03:17:18;2.00;;;0.80;;
44169;SDS011;29836;52.286;9.576;2023-08-01T03:19:44;1.20;;;0.90;;
44169;SDS011;29836;52.286;9.576;2023-08-01T03:22:09;2.13;;;0.80;;
44169;SDS011;29836;52.286;9.576;2023-08-01T03:24:35;1.48;;;0.93;;
44169;SDS011;29836;52.286;9.576;2023-08-01T03:27:01;1.48;;;0.90;;
44169;SDS011;29836;52.286;9.576;2023-08-01T03:29:27;1.23;;;0.90;;
44169;SDS011;29836;52.286;9.576;2023-08-01T03:31:52;2.60;;;0.90;;
44169;SDS011;29836;52.286;9.576;2023-08-01T03:34:18;0.95;;;0.70;;
44169;SDS011;29836;52.286;9.576;2023-08-01T03:36:44;2.53;;;0.80;;
44169;SDS011;29836;52.286;9.576;2023-08-01T03:39:09;0.82;;;0.73;;
44169;SDS011;29836;52.286;9.576;2023-08-01T03:41:35;1.40;;;0.80;;
44169;SDS011;29836;52.286;9.576;2023-08-01T03:44:02;1.77;;;0.80;;
44169;SDS011;29836;52.286;9.576;2023-08-01T03:46:27;1.92;;;0.80;;
44169;SDS011;29836;52.286;9.576;2023-08-01T03:48:53;1.08;;;0.77;;
44169;SDS011;29836;52.286;9.576;2023-08-01T03:51:18;2.42;;;1.05;;
44169;SDS011;29836;52.286;9.576;2023-08-01T03:53:45;1.60;;;1.08;;
44169;SDS011;29836;52.286;9.576;2023-08-01T03:56:11;1.33;;;0.80;;
44169;SDS011;29836;52.286;9.576;2023-08-01T03:58:36;1.67;;;1.00;;
44169;SDS011;29836;52.286;9.576;2023-08-01T04:01:02;1.60;;;1.00;;
44169;SDS011;29836;52.286;9.576;2023-08-01T04:03:28;1.50;;;0.90;;
44169;SDS011;29836;52.286;9.576;2023-08-01T04:05:53;1.90;;;0.88;;
44169;SDS011;29836;52.286;9.576;2023-08-01T04:08:19;1.33;;;0.90;;
44169;SDS011;29836;52.286;9.576;2023-08-01T04:10:45;1.38;;;1.00;;
44169;SDS011;29836;52.286;9.576;2023-08-01T04:13:10;1.17;;;0.85;;
44169;SDS011;29836;52.286;9.576;2023-08-01T04:15:36;1.15;;;0.90;;
44169;SDS011;29836;52.286;9.576;2023-08-01T04:18:02;1.25;;;0.90;;
44169;SDS011;29836;52.286;9.576;2023-08-01T04:20:27;0.75;;;0.70;;
44169;SDS011;29836;52.286;9.576;2023-08-01T04:22:53;1.80;;;1.00;;
44169;SDS011;29836;52.286;9.576;2023-08-01T04:25:19;2.55;;;0.90;;
44169;SDS011;29836;52.286;9.576;2023-08-01T04:27:44;1.27;;;0.95;;
44169;SDS011;29836;52.286;9.576;2023-08-01T04:30:10;0.98;;;0.80;;
44169;SDS011;29836;52.286;9.576;2023-08-01T04:32:36;2.05;;;0.95;;
44169;SDS011;29836;52.286;9.576;2023-08-01T04:35:01;1.75;;;1.00;;
44169;SDS011;29836;52.286;9.576;2023-08-01T04:37:27;2.22;;;1.02;;
44169;SDS011;29836;52.286;9.576;2023-08-01T04:39:53;2.50;;;1.20;;
44169;SDS011;29836;52.286;9.576;2023-08-01T04:42:18;1.60;;;0.93;;
44169;SDS011;29836;52.286;9.576;2023-08-01T04:44:44;4.38;;;1.38;;
44169;SDS011;29836;52.286;9.576;2023-08-01T04:47:10;2.08;;;1.10;;
44169;SDS011;29836;52.286;9.576;2023-08-01T04:49:36;2.10;;;1.20;;
44169;SDS011;29836;52.286;9.576;2023-08-01T04:52:01;1.85;;;1.00;;
44169;SDS011;29836;52.286;9.576;2023-08-01T04:54:27;2.67;;;1.02;;
44169;SDS011;29836;52.286;9.576;2023-08-01T04:56:53;2.53;;;1.17;;
44169;SDS011;29836;52.286;9.576;2023-08-01T04:59:18;1.95;;;1.15;;
44169;SDS011;29836;52.286;9.576;2023-08-01T05:01:44;1.90;;;1.30;;
44169;SDS011;29836;52.286;9.576;2023-08-01T05:04:10;2.08;;;1.23;;
44169;SDS011;29836;52.286;9.576;2023-08-01T05:06:36;3.40;;;1.33;;
44169;SDS011;29836;52.286;9.576;2023-08-01T05:09:01;2.30;;;1.30;;
44169;SDS011;29836;52.286;9.576;2023-08-01T05:11:27;2.22;;;1.35;;
44169;SDS011;29836;52.286;9.576;2023-08-01T05:13:53;2.33;;;1.30;;
44169;SDS011;29836;52.286;9.576;2023-08-01T05:16:19;1.98;;;1.30;;
44169;SDS011;29836;52.286;9.576;2023-08-01T05:18:44;3.10;;;1.25;;
44169;SDS011;29836;52.286;9.576;2023-08-01T05:21:10;2.42;;;1.20;;
44169;SDS011;29836;52.286;9.576;2023-08-01T05:23:35;2.38;;;1.30;;
44169;SDS011;29836;52.286;9.576;2023-08-01T05:26:01;4.63;;;1.52;;
44169;SDS011;29836;52.286;9.576;2023-08-01T05:28:26;2.08;;;1.33;;
44169;SDS011;29836;52.286;9.576;2023-08-01T05:30:52;2.78;;;1.67;;
44169;SDS011;29836;52.286;9.576;2023-08-01T05:33:18;5.50;;;1.45;;
44169;SDS011;29836;52.286;9.576;2023-08-01T05:35:44;2.90;;;1.70;;
44169;SDS011;29836;52.286;9.576;2023-08-01T05:38:09;3.65;;;2.00;;
44169;SDS011;29836;52.286;9.576;2023-08-01T05:40:35;3.72;;;2.10;;
44169;SDS011;29836;52.286;9.576;2023-08-01T05:43:00;2.25;;;1.40;;
44169;SDS011;29836;52.286;9.576;2023-08-01T05:45:26;3.40;;;2.20;;
44169;SDS011;29836;52.286;9.576;2023-08-01T05:47:52;3.08;;;2.00;;
44169;SDS011;29836;52.286;9.576;2023-08-01T05:50:17;3.33;;;1.98;;
44169;SDS011;29836;52.286;9.576;2023-08-01T05:52:43;4.35;;;2.45;;
44169;SDS011;29836;52.286;9.576;2023-08-01T05:55:08;4.75;;;2.65;;
44169;SDS011;29836;52.286;9.576;2023-08-01T05:57:34;3.60;;;2.40;;
44169;SDS011;29836;52.286;9.576;2023-08-01T06:00:00;5.10;;;2.40;;
44169;SDS011;29836;52.286;9.576;2023-08-01T06:02:25;4.00;;;2.40;;
44169;SDS011;29836;52.286;9.576;2023-08-01T06:04:52;4.50;;;2.80;;
44169;SDS011;29836;52.286;9.576;2023-08-01T06:07:17;4.65;;;2.65;;
44169;SDS011;29836;52.286;9.576;2023-08-01T06:09:47;4.85;;;2.92;;
44169;SDS011;29836;52.286;9.576;2023-08-01T06:12:15;6.13;;;2.92;;
44169;SDS011;29836;52.286;9.576;2023-08-01T06:14:41;4.88;;;3.20;;
44169;SDS011;29836;52.286;9.576;2023-08-01T06:17:07;5.28;;;3.05;;
44169;SDS011;29836;52.286;9.576;2023-08-01T06:19:32;5.88;;;3.50;;
44169;SDS011;29836;52.286;9.576;2023-08-01T06:21:58;5.07;;;3.15;;
44169;SDS011;29836;52.286;9.576;2023-08-01T06:24:25;4.95;;;3.08;;
44169;SDS011;29836;52.286;9.576;2023-08-01T06:26:50;6.00;;;2.80;;
44169;SDS011;29836;52.286;9.576;2023-08-01T06:29:16;4.60;;;2.90;;
44169;SDS011;29836;52.286;9.576;2023-08-01T06:31:41;5.32;;;2.90;;
44169;SDS011;29836;52.286;9.576;2023-08-01T06:34:07;5.65;;;2.88;;
44169;SDS011;29836;52.286;9.576;2023-08-01T06:36:32;6.30;;;2.97;;
44169;SDS011;29836;52.286;9.576;2023-08-01T06:38:58;5.43;;;2.97;;
44169;SDS011;29836;52.286;9.576;2023-08-01T06:41:24;5.40;;;2.65;;
44169;SDS011;29836;52.286;9.576;2023-08-01T06:43:49;6.10;;;3.00;;
44169;SDS011;29836;52.286;9.576;2023-08-01T06:46:15;6.07;;;3.85;;
44169;SDS011;29836;52.286;9.576;2023-08-01T06:48:40;8.07;;;4.03;;
44169;SDS011;29836;52.286;9.576;2023-08-01T06:51:06;6.93;;;3.95;;
44169;SDS011;29836;52.286;9.576;2023-08-01T06:53:31;8.90;;;4.60;;
44169;SDS011;29836;52.286;9.576;2023-08-01T06:55:57;7.22;;;4.40;;
44169;SDS011;29836;52.286;9.576;2023-08-01T06:58:22;9.18;;;4.10;;
44169;SDS011;29836;52.286;9.576;2023-08-01T07:00:48;9.20;;;4.53;;
44169;SDS011;29836;52.286;9.576;2023-08-01T07:03:13;12.60;;;5.75;;
44169;SDS011;29836;52.286;9.576;2023-08-01T07:05:39;11.50;;;5.75;;
44169;SDS011;29836;52.286;9.576;2023-08-01T07:08:04;9.57;;;5.63;;
44169;SDS011;29836;52.286;9.576;2023-08-01T07:10:33;11.40;;;5.50;;
44169;SDS011;29836;52.286;9.576;2023-08-01T07:13:00;10.30;;;5.68;;
44169;SDS011;29836;52.286;9.576;2023-08-01T07:15:28;15.95;;;5.90;;
44169;SDS011;29836;52.286;9.576;2023-08-01T07:17:54;10.65;;;5.78;;
44169;SDS011;29836;52.286;9.576;2023-08-01T07:20:20;11.55;;;5.50;;
44169;SDS011;29836;52.286;9.576;2023-08-01T07:22:45;11.15;;;5.85;;
44169;SDS011;29836;52.286;9.576;2023-08-01T07:25:11;9.80;;;6.15;;
44169;SDS011;29836;52.286;9.576;2023-08-01T07:27:36;11.00;;;6.40;;
44169;SDS011;29836;52.286;9.576;2023-08-01T07:30:03;13.13;;;7.22;;
44169;SDS011;29836;52.286;9.576;2023-08-01T07:32:29;13.98;;;7.47;;
44169;SDS011;29836;52.286;9.576;2023-08-01T07:34:55;17.17;;;7.55;;
44169;SDS011;29836;52.286;9.576;2023-08-01T07:37:20;15.07;;;7.13;;
44169;SDS011;29836;52.286;9.576;2023-08-01T07:39:46;11.18;;;6.90;;
44169;SDS011;29836;52.286;9.576;2023-08-01T07:42:11;17.55;;;7.68;;
44169;SDS011;29836;52.286;9.576;2023-08-01T07:44:37;14.35;;;6.88;;
44169;SDS011;29836;52.286;9.576;2023-08-01T07:47:02;15.55;;;6.63;;
44169;SDS011;29836;52.286;9.576;2023-08-01T07:49:28;10.75;;;6.53;;
44169;SDS011;29836;52.286;9.576;2023-08-01T07:51:54;11.60;;;6.50;;
44169;SDS011;29836;52.286;9.576;2023-08-01T07:54:19;15.40;;;6.32;;
44169;SDS011;29836;52.286;9.576;2023-08-01T07:56:45;9.82;;;5.75;;
44169;SDS011;29836;52.286;9.576;2023-08-01T07:59:13;14.38;;;6.50;;
44169;SDS011;29836;52.286;9.576;2023-08-01T08:01:39;10.85;;;6.20;;
44169;SDS011;29836;52.286;9.576;2023-08-01T08:04:05;11.50;;;5.60;;
44169;SDS011;29836;52.286;9.576;2023-08-01T08:06:30;9.63;;;5.40;;
44169;SDS011;29836;52.286;9.576;2023-08-01T08:08:56;10.48;;;5.00;;
44169;SDS011;29836;52.286;9.576;2023-08-01T08:11:22;9.25;;;5.50;;
44169;SDS011;29836;52.286;9.576;2023-08-01T08:13:48;8.20;;;4.55;;
44169;SDS011;29836;52.286;9.576;2023-08-01T08:16:14;9.10;;;5.00;;
44169;SDS011;29836;52.286;9.576;2023-08-01T08:18:39;10.82;;;4.90;;
44169;SDS011;29836;52.286;9.576;2023-08-01T08:21:05;10.35;;;4.10;;
44169;SDS011;29836;52.286;9.576;2023-08-01T08:23:30;11.20;;;5.03;;
44169;SDS011;29836;52.286;9.576;2023-08-01T08:25:56;8.73;;;4.70;;
44169;SDS011;29836;52.286;9.576;2023-08-01T08:28:28;10.30;;;4.95;;
44169;SDS011;29836;52.286;9.576;2023-08-01T08:30:55;10.30;;;4.82;;
44169;SDS011;29836;52.286;9.576;2023-08-01T08:33:21;10.52;;;4.93;;
44169;SDS011;29836;52.286;9.576;2023-08-01T08:35:47;6.95;;;4.35;;
44169;SDS011;29836;52.286;9.576;2023-08-01T08:38:13;9.55;;;4.65;;
44169;SDS011;29836;52.286;9.576;2023-08-01T08:40:40;9.35;;;4.80;;
44169;SDS011;29836;52.286;9.576;2023-08-01T08:43:08;11.50;;;4.47;;
44169;SDS011;29836;52.286;9.576;2023-08-01T08:45:35;11.02;;;4.28;;
44169;SDS011;29836;52.286;9.576;2023-08-01T08:48:10;8.25;;;3.30;;
44169;SDS011;29836;52.286;9.576;2023-08-01T08:50:42;6.13;;;3.63;;
44169;SDS011;29836;52.286;9.576;2023-08-01T08:53:09;8.52;;;3.53;;
44169;SDS011;29836;52.286;9.576;2023-08-01T08:55:38;4.50;;;3.10;;
44169;SDS011;29836;52.286;9.576;2023-08-01T08:58:05;5.18;;;2.80;;
44169;SDS011;29836;52.286;9.576;2023-08-01T09:00:32;6.45;;;2.58;;
44169;SDS011;29836;52.286;9.576;2023-08-01T09:02:58;5.57;;;2.47;;
44169;SDS011;29836;52.286;9.576;2023-08-01T09:05:27;5.95;;;2.60;;
44169;SDS011;29836;52.286;9.576;2023-08-01T09:07:56;4.68;;;2.60;;
44169;SDS011;29836;52.286;9.576;2023-08-01T09:10:24;6.25;;;2.78;;
44169;SDS011;29836;52.286;9.576;2023-08-01T09:12:49;6.28;;;2.50;;
44169;SDS011;29836;52.286;9.576;2023-08-01T09:15:15;5.50;;;2.50;;
44169;SDS011;29836;52.286;9.576;2023-08-01T09:17:49;5.75;;;2.25;;
44169;SDS011;29836;52.286;9.576;2023-08-01T09:20:20;4.35;;;2.20;;
44169;SDS011;29836;52.286;9.576;2023-08-01T09:22:46;4.50;;;2.13;;
44169;SDS011;29836;52.286;9.576;2023-08-01T09:25:12;5.72;;;2.65;;
44169;SDS011;29836;52.286;9.576;2023-08-01T09:27:38;5.88;;;2.60;;
44169;SDS011;29836;52.286;9.576;2023-08-01T09:30:13;5.45;;;2.55;;
44169;SDS011;29836;52.286;9.576;2023-08-01T09:32:54;7.00;;;2.63;;
44169;SDS011;29836;52.286;9.576;2023-08-01T09:35:20;5.45;;;2.40;;
44169;SDS011;29836;52.286;9.576;2023-08-01T09:37:47;6.53;;;2.53;;
44169;SDS011;29836;52.286;9.576;2023-08-01T09:40:13;5.07;;;2.45;;
44169;SDS011;29836;52.286;9.576;2023-08-01T09:42:40;3.97;;;2.22;;
44169;SDS011;29836;52.286;9.576;2023-08-01T09:45:11;3.60;;;1.85;;
44169;SDS011;29836;52.286;9.576;2023-08-01T09:47:38;4.55;;;2.13;;
44169;SDS011;29836;52.286;9.576;2023-08-01T09:50:04;6.03;;;2.05;;
44169;SDS011;29836;52.286;9.576;2023-08-01T09:52:30;5.45;;;2.08;;
44169;SDS011;29836;52.286;9.576;2023-08-01T09:54:56;3.67;;;1.55;;
44169;SDS011;29836;52.286;9.576;2023-08-01T09:57:21;3.55;;;1.83;;
44169;SDS011;29836;52.286;9.576;2023-08-01T09:59:50;5.35;;;2.08;;
44169;SDS011;29836;52.286;9.576;2023-08-01T10:02:16;3.53;;;2.00;;
44169;SDS011;29836;52.286;9.576;2023-08-01T10:04:45;5.68;;;2.50;;
44169;SDS011;29836;52.286;9.576;2023-08-01T10:07:12;5.53;;;2.33;;
44169;SDS011;29836;52.286;9.576;2023-08-01T10:09:42;7.50;;;2.25;;
44169;SDS011;29836;52.286;9.576;2023-08-01T10:12:08;5.28;;;2.00;;
44169;SDS011;29836;52.286;9.576;2023-08-01T10:14:37;4.68;;;1.83;;
44169;SDS011;29836;52.286;9.576;2023-08-01T10:17:04;5.13;;;2.17;;
44169;SDS011;29836;52.286;9.576;2023-08-01T10:19:31;5.55;;;2.20;;
44169;SDS011;29836;52.286;9.576;2023-08-01T10:21:58;4.18;;;1.77;;
44169;SDS011;29836;52.286;9.576;2023-08-01T10:24:24;5.05;;;2.20;;
44169;SDS011;29836;52.286;9.576;2023-08-01T10:26:52;4.50;;;2.15;;
44169;SDS011;29836;52.286;9.576;2023-08-01T10:29:17;5.53;;;2.30;;
44169;SDS011;29836;52.286;9.576;2023-08-01T10:31:52;4.82;;;2.30;;
44169;SDS011;29836;52.286;9.576;2023-08-01T10:34:18;6.72;;;2.38;;
44169;SDS011;29836;52.286;9.576;2023-08-01T10:36:56;5.65;;;2.22;;
44169;SDS011;29836;52.286;9.576;2023-08-01T10:39:23;7.10;;;2.30;;
44169;SDS011;29836;52.286;9.576;2023-08-01T10:42:03;5.05;;;2.20;;
44169;SDS011;29836;52.286;9.576;2023-08-01T10:44:30;4.55;;;2.22;;
44169;SDS011;29836;52.286;9.576;2023-08-01T10:49:33;4.35;;;2.30;;
44169;SDS011;29836;52.286;9.576;2023-08-01T10:52:03;8.30;;;2.65;;
44169;SDS011;29836;52.286;9.576;2023-08-01T10:54:40;4.43;;;2.30;;
44169;SDS011;29836;52.286;9.576;2023-08-01T10:57:05;4.82;;;2.20;;
44169;SDS011;29836;52.286;9.576;2023-08-01T10:59:31;4.45;;;2.00;;
44169;SDS011;29836;52.286;9.576;2023-08-01T11:01:58;4.72;;;1.80;;
44169;SDS011;29836;52.286;9.576;2023-08-01T11:04:25;3.45;;;1.85;;
44169;SDS011;29836;52.286;9.576;2023-08-01T11:06:51;4.82;;;1.80;;
44169;SDS011;29836;52.286;9.576;2023-08-01T11:09:21;5.70;;;2.00;;
44169;SDS011;29836;52.286;9.576;2023-08-01T11:11:58;3.40;;;1.58;;
44169;SDS011;29836;52.286;9.576;2023-08-01T11:14:26;5.85;;;1.50;;
44169;SDS011;29836;52.286;9.576;2023-08-01T11:16:56;3.00;;;1.60;;
44169;SDS011;29836;52.286;9.576;2023-08-01T11:21:52;4.15;;;2.03;;
44169;SDS011;29836;52.286;9.576;2023-08-01T11:24:21;3.90;;;2.13;;
44169;SDS011;29836;52.286;9.576;2023-08-01T11:26:48;5.05;;;2.30;;
44169;SDS011;29836;52.286;9.576;2023-08-01T11:29:15;6.15;;;2.50;;
44169;SDS011;29836;52.286;9.576;2023-08-01T11:31:41;3.58;;;1.92;;
44169;SDS011;29836;52.286;9.576;2023-08-01T11:34:20;3.92;;;1.88;;
44169;SDS011;29836;52.286;9.576;2023-08-01T11:36:46;5.95;;;2.35;;
44169;SDS011;29836;52.286;9.576;2023-08-01T11:39:12;5.32;;;2.00;;
44169;SDS011;29836;52.286;9.576;2023-08-01T11:41:40;3.83;;;2.10;;
44169;SDS011;29836;52.286;9.576;2023-08-01T11:44:06;2.88;;;1.88;;
44169;SDS011;29836;52.286;9.576;2023-08-01T11:46:34;3.80;;;2.10;;
44169;SDS011;29836;52.286;9.576;2023-08-01T11:49:01;5.82;;;2.25;;
44169;SDS011;29836;52.286;9.576;2023-08-01T11:51:27;3.80;;;2.40;;
44169;SDS011;29836;52.286;9.576;2023-08-01T11:54:03;7.85;;;2.53;;
44169;SDS011;29836;52.286;9.576;2023-08-01T11:56:29;5.23;;;2.80;;
44169;SDS011;29836;52.286;9.576;2023-08-01T11:58:55;7.28;;;2.90;;
44169;SDS011;29836;52.286;9.576;2023-08-01T12:01:21;9.15;;;2.92;;
44169;SDS011;29836;52.286;9.576;2023-08-01T12:03:48;4.47;;;3.08;;
44169;SDS011;29836;52.286;9.576;2023-08-01T12:06:16;5.90;;;2.55;;
44169;SDS011;29836;52.286;9.576;2023-08-01T12:08:45;4.03;;;2.53;;
44169;SDS011;29836;52.286;9.576;2023-08-01T12:11:19;5.82;;;2.53;;
44169;SDS011;29836;52.286;9.576;2023-08-01T12:13:45;4.68;;;2.70;;
44169;SDS011;29836;52.286;9.576;2023-08-01T12:16:11;4.72;;;2.35;;
44169;SDS011;29836;52.286;9.576;2023-08-01T12:18:40;7.53;;;2.55;;
44169;SDS011;29836;52.286;9.576;2023-08-01T12:21:07;5.35;;;2.30;;
44169;SDS011;29836;52.286;9.576;2023-08-01T12:23:33;4.90;;;2.55;;
44169;SDS011;29836;52.286;9.576;2023-08-01T12:25:58;5.40;;;2.65;;
44169;SDS011;29836;52.286;9.576;2023-08-01T12:28:24;5.03;;;2.50;;
44169;SDS011;29836;52.286;9.576;2023-08-01T12:30:50;4.53;;;2.60;;
44169;SDS011;29836;52.286;9.576;2023-08-01T12:33:16;5.10;;;2.38;;
44169;SDS011;29836;52.286;9.576;2023-08-01T12:35:42;4.80;;;2.33;;
44169;SDS011;29836;52.286;9.576;2023-08-01T12:38:08;5.28;;;2.90;;
44169;SDS011;29836;52.286;9.576;2023-08-01T12:40:34;5.07;;;2.65;;
44169;SDS011;29836;52.286;9.576;2023-08-01T12:42:59;4.85;;;2.45;;
44169;SDS011;29836;52.286;9.576;2023-08-01T12:45:25;7.20;;;2.75;;
44169;SDS011;29836;52.286;9.576;2023-08-01T12:47:50;5.85;;;2.80;;
44169;SDS011;29836;52.286;9.576;2023-08-01T12:50:16;6.15;;;2.80;;
44169;SDS011;29836;52.286;9.576;2023-08-01T12:52:42;5.38;;;2.35;;
44169;SDS011;29836;52.286;9.576;2023-08-01T12:55:07;5.13;;;2.50;;
44169;SDS011;29836;52.286;9.576;2023-08-01T12:57:33;5.20;;;2.78;;
44169;SDS011;29836;52.286;9.576;2023-08-01T13:02:36;5.80;;;2.17;;
44169;SDS011;29836;52.286;9.576;2023-08-01T13:05:02;4.68;;;2.08;;
44169;SDS011;29836;52.286;9.576;2023-08-01T13:07:29;4.25;;;2.05;;
44169;SDS011;29836;52.286;9.576;2023-08-01T13:09:57;4.43;;;2.10;;
44169;SDS011;29836;52.286;9.576;2023-08-01T13:12:23;3.80;;;2.03;;
44169;SDS011;29836;52.286;9.576;2023-08-01T13:14:49;6.47;;;2.13;;
44169;SDS011;29836;52.286;9.576;2023-08-01T13:17:14;4.68;;;1.95;;
44169;SDS011;29836;52.286;9.576;2023-08-01T13:19:40;5.75;;;2.20;;
44169;SDS011;29836;52.286;9.576;2023-08-01T13:22:05;5.50;;;1.95;;
44169;SDS011;29836;52.286;9.576;2023-08-01T13:24:31;4.30;;;2.10;;
44169;SDS011;29836;52.286;9.576;2023-08-01T13:26:58;5.85;;;2.17;;
44169;SDS011;29836;52.286;9.576;2023-08-01T13:29:23;5.05;;;2.28;;
44169;SDS011;29836;52.286;9.576;2023-08-01T13:31:49;7.45;;;2.80;;
44169;SDS011;29836;52.286;9.576;2023-08-01T13:34:14;9.23;;;3.20;;
44169;SDS011;29836;52.286;9.576;2023-08-01T13:36:42;9.70;;;3.20;;
44169;SDS011;29836;52.286;9.576;2023-08-01T13:39:08;3.03;;;1.92;;
44169;SDS011;29836;52.286;9.576;2023-08-01T13:41:33;2.42;;;1.42;;
44169;SDS011;29836;52.286;9.576;2023-08-01T13:43:59;2.65;;;1.42;;
44169;SDS011;29836;52.286;9.576;2023-08-01T13:46:24;2.80;;;1.55;;
44169;SDS011;29836;52.286;9.576;2023-08-01T13:48:50;12.95;;;2.65;;
44169;SDS011;29836;52.286;9.576;2023-08-01T13:51:15;2.47;;;1.60;;
44169;SDS011;29836;52.286;9.576;2023-08-01T13:53:42;5.13;;;2.05;;
44169;SDS011;29836;52.286;9.576;2023-08-01T13:56:11;4.28;;;1.80;;
44169;SDS011;29836;52.286;9.576;2023-08-01T13:58:37;4.57;;;1.85;;
44169;SDS011;29836;52.286;9.576;2023-08-01T14:01:07;4.78;;;1.90;;
44169;SDS011;29836;52.286;9.576;2023-08-01T14:03:34;3.85;;;1.90;;
44169;SDS011;29836;52.286;9.576;2023-08-01T14:06:06;3.50;;;1.77;;
44169;SDS011;29836;52.286;9.576;2023-08-01T14:08:36;4.40;;;1.42;;
44169;SDS011;29836;52.286;9.576;2023-08-01T14:11:03;3.40;;;1.35;;
44169;SDS011;29836;52.286;9.576;2023-08-01T14:13:30;3.97;;;1.25;;
44169;SDS011;29836;52.286;9.576;2023-08-01T14:15:56;2.20;;;1.08;;
44169;SDS011;29836;52.286;9.576;2023-08-01T14:18:21;1.75;;;1.10;;
44169;SDS011;29836;52.286;9.576;2023-08-01T14:20:47;2.35;;;1.42;;
44169;SDS011;29836;52.286;9.576;2023-08-01T14:23:12;2.03;;;1.30;;
44169;SDS011;29836;52.286;9.576;2023-08-01T14:25:38;2.17;;;1.10;;
44169;SDS011;29836;52.286;9.576;2023-08-01T14:28:04;1.90;;;1.13;;
44169;SDS011;29836;52.286;9.576;2023-08-01T14:30:29;2.10;;;1.20;;
44169;SDS011;29836;52.286;9.576;2023-08-01T14:33:01;3.97;;;1.60;;
44169;SDS011;29836;52.286;9.576;2023-08-01T14:35:28;2.55;;;1.30;;
44169;SDS011;29836;52.286;9.576;2023-08-01T14:37:54;2.72;;;1.67;;
44169;SDS011;29836;52.286;9.576;2023-08-01T14:40:20;2.60;;;1.50;;
44169;SDS011;29836;52.286;9.576;2023-08-01T14:42:46;2.72;;;1.38;;
44169;SDS011;29836;52.286;9.576;2023-08-01T14:45:12;3.60;;;1.20;;
44169;SDS011;29836;52.286;9.576;2023-08-01T14:47:39;2.55;;;1.27;;